createdAt,value
2017-09-24T00:00:57.096Z,20.62
2017-09-24T00:03:26.724Z,19.17
2017-09-24T00:05:54.811Z,17.87
2017-09-24T00:08:22.922Z,18.55
2017-09-24T00:10:51.440Z,17.50
2017-09-24T00:13:20.328Z,19.30
2017-09-24T00:15:49.187Z,18.80
2017-09-24T00:18:17.279Z,17.90
2017-09-24T00:20:46.527Z,17.40
2017-09-24T00:23:14.614Z,18.50
2017-09-24T00:25:42.727Z,17.23
2017-09-24T00:28:11.587Z,16.67
2017-09-24T00:30:39.679Z,19.05
2017-09-24T00:33:07.794Z,17.85
2017-09-24T00:35:35.911Z,19.40
2017-09-24T00:38:04.028Z,18.35
2017-09-24T00:40:32.125Z,21.60
2017-09-24T00:43:01.754Z,19.65
2017-09-24T00:45:29.843Z,18.37
2017-09-24T00:47:58.337Z,19.52
2017-09-24T00:50:26.447Z,18.90
2017-09-24T00:52:54.948Z,19.00
2017-09-24T00:55:23.080Z,19.40
2017-09-24T00:57:51.567Z,18.85
2017-09-24T01:00:20.055Z,21.65
2017-09-24T01:02:48.167Z,20.00
2017-09-24T01:05:16.657Z,20.15
2017-09-24T01:07:44.778Z,20.48
2017-09-24T01:10:14.410Z,22.45
2017-09-24T01:12:43.272Z,21.92
2017-09-24T01:15:12.821Z,22.62
2017-09-24T01:17:41.547Z,21.35
2017-09-24T01:20:09.664Z,23.85
2017-09-24T01:22:37.759Z,19.98
2017-09-24T01:25:05.880Z,20.80
2017-09-24T01:27:34.738Z,22.02
2017-09-24T01:30:02.836Z,20.83
2017-09-24T01:32:31.712Z,20.83
2017-09-24T01:34:59.800Z,21.95
2017-09-24T01:37:28.682Z,21.48
2017-09-24T01:39:57.539Z,21.10
2017-09-24T01:42:26.391Z,23.90
2017-09-24T01:44:54.499Z,22.75
2017-09-24T01:47:22.599Z,20.55
2017-09-24T01:49:51.474Z,22.65
2017-09-24T01:52:19.554Z,25.35
2017-09-24T01:54:47.657Z,22.58
2017-09-24T01:57:16.510Z,22.25
2017-09-24T01:59:44.631Z,21.23
2017-09-24T02:02:12.739Z,23.95
2017-09-24T02:04:41.618Z,23.67
2017-09-24T02:07:09.712Z,22.87
2017-09-24T02:09:37.807Z,24.00
2017-09-24T02:12:05.898Z,23.75
2017-09-24T02:14:34.758Z,21.90
2017-09-24T02:17:03.267Z,21.83
2017-09-24T02:19:31.768Z,23.10
2017-09-24T02:21:59.864Z,22.52
2017-09-24T02:24:27.983Z,21.48
2017-09-24T02:26:56.470Z,20.60
2017-09-24T02:29:25.331Z,25.58
2017-09-24T02:31:53.437Z,24.77
2017-09-24T02:34:22.289Z,21.87
2017-09-24T02:36:50.379Z,22.73
2017-09-24T02:39:18.490Z,22.20
2017-09-24T02:41:46.578Z,22.62
2017-09-24T02:44:14.695Z,21.42
2017-09-24T02:46:42.778Z,22.73
2017-09-24T02:49:11.626Z,22.23
2017-09-24T02:51:39.734Z,22.92
2017-09-24T02:54:09.179Z,21.77
2017-09-24T02:56:37.199Z,21.25
2017-09-24T02:59:05.380Z,22.77
2017-09-24T03:01:33.489Z,22.58
2017-09-24T03:04:02.921Z,22.35
2017-09-24T03:06:31.724Z,23.98
2017-09-24T03:09:01.227Z,21.90
2017-09-24T03:11:29.187Z,22.25
2017-09-24T03:13:57.289Z,22.95
2017-09-24T03:16:25.378Z,21.90
2017-09-24T03:18:53.502Z,22.77
2017-09-24T03:21:22.369Z,22.55
2017-09-24T03:23:50.459Z,25.58
2017-09-24T03:26:18.557Z,24.55
2017-09-24T03:28:47.134Z,24.17
2017-09-24T03:31:16.691Z,25.60
2017-09-24T03:33:45.551Z,23.80
2017-09-24T03:36:15.006Z,24.65
2017-09-24T03:38:43.775Z,25.27
2017-09-24T03:41:12.661Z,24.83
2017-09-24T03:43:42.117Z,26.80
2017-09-24T03:46:10.091Z,23.75
2017-09-24T03:48:38.197Z,24.83
2017-09-24T03:51:06.283Z,24.98
2017-09-24T03:53:35.154Z,24.60
2017-09-24T03:56:03.245Z,26.00
2017-09-24T03:58:31.743Z,24.15
2017-09-24T04:00:59.872Z,24.67
2017-09-24T04:03:27.963Z,26.87
2017-09-24T04:05:56.469Z,25.40
2017-09-24T04:08:26.010Z,22.90
2017-09-24T04:10:53.967Z,24.05
2017-09-24T04:13:22.075Z,24.92
2017-09-24T04:15:50.163Z,23.20
2017-09-24T04:18:19.035Z,24.35
2017-09-24T04:20:47.145Z,24.40
2017-09-24T04:23:16.358Z,23.92
2017-09-24T04:25:44.470Z,24.85
2017-09-24T04:28:13.349Z,24.60
2017-09-24T04:30:41.439Z,23.60
2017-09-24T04:33:10.298Z,24.52
2017-09-24T04:35:38.410Z,28.55
2017-09-24T04:38:06.984Z,25.40
2017-09-24T04:40:35.027Z,28.62
2017-09-24T04:43:04.275Z,29.10
2017-09-24T04:45:32.375Z,29.00
2017-09-24T04:48:00.490Z,26.20
2017-09-24T04:50:28.599Z,27.70
2017-09-24T04:52:56.691Z,27.83
2017-09-24T04:55:26.239Z,26.15
2017-09-24T04:57:54.219Z,26.45
2017-09-24T05:00:23.075Z,24.85
2017-09-24T05:02:51.598Z,25.23
2017-09-24T05:05:19.700Z,25.77
2017-09-24T05:07:48.165Z,26.80
2017-09-24T05:10:16.672Z,24.67
2017-09-24T05:12:45.517Z,23.95
2017-09-24T05:15:13.623Z,26.73
2017-09-24T05:17:42.507Z,25.90
2017-09-24T05:20:11.358Z,29.98
2017-09-24T05:22:39.438Z,27.48
2017-09-24T05:25:07.534Z,25.90
2017-09-24T05:27:35.636Z,26.45
2017-09-24T05:30:04.502Z,25.98
2017-09-24T05:32:32.594Z,29.80
2017-09-24T05:35:01.472Z,25.55
2017-09-24T05:37:30.358Z,27.20
2017-09-24T05:39:58.441Z,27.42
2017-09-24T05:42:27.313Z,30.08
2017-09-24T05:44:55.402Z,31.60
2017-09-24T05:47:24.266Z,29.35
2017-09-24T05:49:52.365Z,28.35
2017-09-24T05:52:21.595Z,32.40
2017-09-24T05:54:51.057Z,31.70
2017-09-24T05:57:19.452Z,28.73
2017-09-24T05:59:48.309Z,30.33
2017-09-24T06:02:16.409Z,28.10
2017-09-24T06:04:45.850Z,32.83
2017-09-24T06:07:13.883Z,26.80
2017-09-24T06:09:41.961Z,25.48
2017-09-24T06:12:11.554Z,27.80
2017-09-24T06:14:39.720Z,26.45
2017-09-24T06:17:07.802Z,26.75
2017-09-24T06:19:35.919Z,27.15
2017-09-24T06:22:04.007Z,27.13
2017-09-24T06:24:32.113Z,25.08
2017-09-24T06:27:00.210Z,26.42
2017-09-24T06:29:29.064Z,23.83
2017-09-24T06:31:57.218Z,24.00
2017-09-24T06:34:25.275Z,24.33
2017-09-24T06:36:53.363Z,22.55
2017-09-24T06:39:21.471Z,23.83
2017-09-24T06:41:49.553Z,25.90
2017-09-24T06:44:19.018Z,21.60
2017-09-24T06:46:47.443Z,21.65
2017-09-24T06:49:16.663Z,22.27
2017-09-24T06:51:44.758Z,20.48
2017-09-24T06:54:12.870Z,21.37
2017-09-24T06:56:41.733Z,20.23
2017-09-24T06:59:09.834Z,21.70
2017-09-24T07:01:38.320Z,20.73
2017-09-24T07:04:06.428Z,23.62
2017-09-24T07:06:34.905Z,20.85
2017-09-24T07:09:03.031Z,21.35
2017-09-24T07:11:32.255Z,21.15
2017-09-24T07:14:01.505Z,21.05
2017-09-24T07:16:29.608Z,19.25
2017-09-24T07:18:57.690Z,19.55
2017-09-24T07:21:26.587Z,20.55
2017-09-24T07:23:56.027Z,20.23
2017-09-24T07:26:24.027Z,20.12
2017-09-24T07:28:52.130Z,19.02
2017-09-24T07:31:21.353Z,20.25
2017-09-24T07:33:49.474Z,17.80
2017-09-24T07:36:17.562Z,18.77
2017-09-24T07:38:46.427Z,18.42
2017-09-24T07:41:14.926Z,18.60
2017-09-24T07:43:43.019Z,18.27
2017-09-24T07:46:11.535Z,21.25
2017-09-24T07:48:39.623Z,17.55
2017-09-24T07:51:08.509Z,18.40
2017-09-24T07:53:37.367Z,19.35
2017-09-24T07:56:05.931Z,17.42
2017-09-24T07:58:34.042Z,17.75
2017-09-24T08:01:02.146Z,20.40
2017-09-24T08:03:31.757Z,17.27
2017-09-24T08:05:59.849Z,18.23
2017-09-24T08:08:29.088Z,17.45
2017-09-24T08:10:57.178Z,18.23
2017-09-24T08:13:26.807Z,20.33
2017-09-24T08:15:54.895Z,18.08
2017-09-24T08:18:24.479Z,19.45
2017-09-24T08:20:52.439Z,17.30
2017-09-24T08:23:20.530Z,19.90
2017-09-24T08:25:48.651Z,20.30
2017-09-24T08:28:18.203Z,22.62
2017-09-24T08:30:46.583Z,22.20
2017-09-24T08:33:14.670Z,22.00
2017-09-24T08:35:42.778Z,25.08
2017-09-24T08:38:11.718Z,24.45
2017-09-24T08:40:39.807Z,22.77
2017-09-24T08:43:08.282Z,25.02
2017-09-24T08:45:36.377Z,25.27
2017-09-24T08:48:05.255Z,25.35
2017-09-24T08:50:33.753Z,24.08
2017-09-24T08:53:01.867Z,24.23
2017-09-24T08:55:29.949Z,23.67
2017-09-24T08:57:58.171Z,28.02
2017-09-24T09:00:26.645Z,27.90
2017-09-24T09:02:54.735Z,26.90
2017-09-24T09:05:23.619Z,25.48
2017-09-24T09:07:51.694Z,27.52
2017-09-24T09:10:20.567Z,27.52
2017-09-24T09:12:49.490Z,24.95
2017-09-24T09:15:18.371Z,24.12
2017-09-24T09:17:47.222Z,26.20
2017-09-24T09:20:15.305Z,22.45
2017-09-24T09:22:44.558Z,21.45
2017-09-24T09:25:12.646Z,24.33
2017-09-24T09:27:41.529Z,23.05
2017-09-24T09:30:09.642Z,27.15
2017-09-24T09:32:41.674Z,24.33
2017-09-24T09:35:15.083Z,25.23
2017-09-24T09:37:43.107Z,27.73
2017-09-24T09:40:11.598Z,25.60
2017-09-24T09:42:39.682Z,24.42
2017-09-24T09:45:29.338Z,27.95
2017-09-24T09:47:58.218Z,26.45
2017-09-24T09:50:26.711Z,24.83
2017-09-24T09:52:55.194Z,28.00
2017-09-24T09:55:24.079Z,24.95
2017-09-24T09:57:52.934Z,25.73
2017-09-24T10:00:21.781Z,26.70
2017-09-24T10:02:49.924Z,21.95
2017-09-24T10:05:18.010Z,25.05
2017-09-24T10:07:58.414Z,25.37
2017-09-24T10:10:26.526Z,23.12
2017-09-24T10:12:55.031Z,24.50
2017-09-24T10:15:23.913Z,22.92
2017-09-24T10:17:52.759Z,23.25
2017-09-24T10:20:21.638Z,20.98
2017-09-24T10:22:50.131Z,19.77
2017-09-24T10:25:19.002Z,18.80
2017-09-24T10:27:47.115Z,19.20
2017-09-24T10:30:27.498Z,19.00
2017-09-24T10:32:56.792Z,20.80
2017-09-24T10:35:24.857Z,20.58
2017-09-24T10:37:52.953Z,19.92
2017-09-24T10:40:21.463Z,20.65
2017-09-24T10:42:50.925Z,21.70
2017-09-24T10:45:19.705Z,19.85
2017-09-24T10:47:47.794Z,19.98
2017-09-24T10:50:16.663Z,19.80
2017-09-24T10:52:45.151Z,20.75
2017-09-24T10:55:13.273Z,20.73
2017-09-24T10:57:41.765Z,16.27
2017-09-24T11:00:09.944Z,17.65
2017-09-24T11:02:39.522Z,15.15
2017-09-24T11:05:07.663Z,16.48
2017-09-24T11:07:36.519Z,15.25
2017-09-24T11:10:05.411Z,14.68
2017-09-24T11:12:33.505Z,18.58
2017-09-24T11:15:01.643Z,16.48
2017-09-24T11:17:29.735Z,17.40
2017-09-24T11:19:57.845Z,17.67
2017-09-24T11:22:26.347Z,17.58
2017-09-24T11:24:54.466Z,15.63
2017-09-24T11:27:22.609Z,15.50
2017-09-24T11:29:51.472Z,17.75
2017-09-24T11:32:20.327Z,17.08
2017-09-24T11:34:48.835Z,16.90
2017-09-24T11:37:17.681Z,14.25
2017-09-24T11:39:46.572Z,16.85
2017-09-24T11:42:16.074Z,18.02
2017-09-24T11:44:44.684Z,16.87
2017-09-24T11:47:12.771Z,16.52
2017-09-24T11:49:41.636Z,15.60
2017-09-24T11:52:09.772Z,19.92
2017-09-24T11:54:37.870Z,15.13
2017-09-24T11:57:06.343Z,15.73
2017-09-24T11:59:34.455Z,15.40
2017-09-24T12:02:02.964Z,14.57
2017-09-24T12:04:31.468Z,16.17
2017-09-24T12:07:00.933Z,17.37
2017-09-24T12:09:29.695Z,16.40
2017-09-24T12:11:58.551Z,16.17
2017-09-24T12:14:26.658Z,16.87
2017-09-24T12:16:54.772Z,17.30
2017-09-24T12:19:24.198Z,14.98
2017-09-24T12:21:52.997Z,15.57
2017-09-24T12:24:21.495Z,17.70
2017-09-24T12:26:49.614Z,18.30
2017-09-24T12:29:18.477Z,20.00
2017-09-24T12:31:46.573Z,19.70
2017-09-24T12:34:14.695Z,18.90
2017-09-24T12:36:42.787Z,18.42
2017-09-24T12:39:12.222Z,20.98
2017-09-24T12:41:41.798Z,19.10
2017-09-24T12:44:09.896Z,18.65
2017-09-24T12:46:38.742Z,17.70
2017-09-24T12:49:06.850Z,21.15
2017-09-24T12:51:34.964Z,18.08
2017-09-24T12:54:03.086Z,16.70
2017-09-24T12:56:31.580Z,18.58
2017-09-24T12:58:59.665Z,19.73
2017-09-24T13:01:28.546Z,18.10
2017-09-24T13:03:57.804Z,19.10
2017-09-24T13:06:27.044Z,17.00
2017-09-24T13:08:55.526Z,18.85
2017-09-24T13:11:24.427Z,17.00
2017-09-24T13:13:53.663Z,13.73
2017-09-24T13:16:22.927Z,15.48
2017-09-24T13:18:51.402Z,17.42
2017-09-24T13:21:19.894Z,13.18
2017-09-24T13:23:48.770Z,13.48
2017-09-24T13:26:17.267Z,14.40
2017-09-24T13:28:46.518Z,17.37
2017-09-24T13:31:15.416Z,14.63
2017-09-24T13:33:43.521Z,16.10
2017-09-24T13:36:13.109Z,13.60
2017-09-24T13:38:41.607Z,14.87
2017-09-24T13:41:10.147Z,12.43
2017-09-24T13:43:38.238Z,13.90
2017-09-24T13:46:06.778Z,10.95
2017-09-24T13:48:36.373Z,13.50
2017-09-24T13:51:04.516Z,12.07
2017-09-24T13:53:33.954Z,12.93
2017-09-24T13:56:01.946Z,13.50
2017-09-24T13:58:30.079Z,11.52
2017-09-24T14:00:59.679Z,12.30
2017-09-24T14:03:28.572Z,13.48
2017-09-24T14:05:56.651Z,10.98
2017-09-24T14:08:26.087Z,13.10
2017-09-24T14:10:54.093Z,12.02
2017-09-24T14:13:22.208Z,12.25
2017-09-24T14:15:51.713Z,11.80
2017-09-24T14:18:20.195Z,11.48
2017-09-24T14:20:49.442Z,13.77
2017-09-24T14:23:17.956Z,13.52
2017-09-24T14:25:46.443Z,13.35
2017-09-24T14:28:15.914Z,14.07
2017-09-24T14:30:45.062Z,13.73
2017-09-24T14:33:13.916Z,17.48
2017-09-24T14:35:42.021Z,12.25
2017-09-24T14:38:11.577Z,12.18
2017-09-24T14:40:39.560Z,12.98
2017-09-24T14:43:07.670Z,11.75
2017-09-24T14:45:37.271Z,11.32
2017-09-24T14:48:05.370Z,11.63
2017-09-24T14:50:33.479Z,10.02
2017-09-24T14:53:01.564Z,10.50
2017-09-24T14:55:29.670Z,13.65
2017-09-24T14:57:58.514Z,10.30
2017-09-24T15:00:27.970Z,11.00
2017-09-24T15:02:57.510Z,10.25
2017-09-24T15:05:27.099Z,10.05
2017-09-24T15:07:55.127Z,13.02
2017-09-24T15:10:23.210Z,10.38
2017-09-24T15:12:51.709Z,9.93
2017-09-24T15:15:21.190Z,10.15
2017-09-24T15:17:49.968Z,11.93
2017-09-24T15:20:18.455Z,10.70
2017-09-24T15:22:46.569Z,11.20
2017-09-24T15:25:16.740Z,12.07
2017-09-24T15:27:44.858Z,12.37
2017-09-24T15:30:13.060Z,11.82
2017-09-24T15:32:41.533Z,12.18
2017-09-24T15:35:09.627Z,14.02
2017-09-24T15:37:37.719Z,12.73
2017-09-24T15:40:05.858Z,14.87
2017-09-24T15:42:33.947Z,14.43
2017-09-24T15:45:02.048Z,16.65
2017-09-24T15:47:30.163Z,15.18
2017-09-24T15:49:58.250Z,14.98
2017-09-24T15:52:27.123Z,13.80
2017-09-24T15:54:55.250Z,11.68
2017-09-24T15:57:23.347Z,13.18
2017-09-24T15:59:51.438Z,13.20
2017-09-24T16:02:19.555Z,13.02
2017-09-24T16:04:49.145Z,12.45
2017-09-24T16:07:17.234Z,11.43
2017-09-24T16:09:45.343Z,11.80
2017-09-24T16:12:13.467Z,12.18
2017-09-24T16:14:41.550Z,12.05
2017-09-24T16:17:10.039Z,10.65
2017-09-24T16:19:38.143Z,12.13
2017-09-24T16:22:06.264Z,11.88
2017-09-24T16:24:34.351Z,11.70
2017-09-24T16:27:02.462Z,12.75
2017-09-24T16:29:31.918Z,12.65
2017-09-24T16:31:59.920Z,11.98
2017-09-24T16:34:28.799Z,11.55
2017-09-24T16:36:56.898Z,11.63
2017-09-24T16:39:26.534Z,10.50
2017-09-24T16:41:54.623Z,9.70
2017-09-24T16:44:22.711Z,11.63
2017-09-24T16:46:51.603Z,11.20
2017-09-24T16:49:20.071Z,10.25
2017-09-24T16:51:48.180Z,10.95
2017-09-24T16:54:16.655Z,9.50
2017-09-24T16:56:44.746Z,9.98
2017-09-24T16:59:13.599Z,11.45
2017-09-24T17:01:41.707Z,10.70
2017-09-24T17:04:10.556Z,10.27
2017-09-24T17:06:39.078Z,10.90
2017-09-24T17:09:08.289Z,7.65
2017-09-24T17:11:36.375Z,10.77
2017-09-24T17:14:04.474Z,11.73
2017-09-24T17:16:32.567Z,10.38
2017-09-24T17:19:01.439Z,10.52
2017-09-24T17:21:29.526Z,12.43
2017-09-24T17:23:58.397Z,9.70
2017-09-24T17:26:26.480Z,11.20
2017-09-24T17:28:54.563Z,9.77
2017-09-24T17:31:22.671Z,10.75
2017-09-24T17:33:51.519Z,11.85
2017-09-24T17:36:19.631Z,8.98
2017-09-24T17:38:48.859Z,10.55
2017-09-24T17:41:17.330Z,10.40
2017-09-24T17:43:45.433Z,10.82
2017-09-24T17:46:13.511Z,9.88
2017-09-24T17:48:41.622Z,10.65
2017-09-24T17:51:11.041Z,10.35
2017-09-24T17:53:39.827Z,10.98
2017-09-24T17:56:09.368Z,10.32
2017-09-24T17:58:38.689Z,12.73
2017-09-24T18:01:06.719Z,11.73
2017-09-24T18:03:34.839Z,12.93
2017-09-24T18:06:02.921Z,13.20
2017-09-24T18:08:32.509Z,11.10
2017-09-24T18:11:00.639Z,13.35
2017-09-24T18:13:28.723Z,15.85
2017-09-24T18:15:56.810Z,13.35
2017-09-24T18:18:26.275Z,13.62
2017-09-24T18:20:54.287Z,14.85
2017-09-24T18:23:22.378Z,15.77
2017-09-24T18:25:50.503Z,15.48
2017-09-24T18:28:20.038Z,16.42
2017-09-24T18:30:47.998Z,16.50
2017-09-24T18:33:16.514Z,15.02
2017-09-24T18:35:44.611Z,16.90
2017-09-24T18:38:14.939Z,15.27
2017-09-24T18:40:43.803Z,15.77
2017-09-24T18:43:13.265Z,17.25
2017-09-24T18:45:41.703Z,17.92
2017-09-24T18:48:10.559Z,16.45
2017-09-24T18:50:38.662Z,17.27
2017-09-24T18:53:08.688Z,19.10
2017-09-24T18:55:37.546Z,17.48
2017-09-24T18:58:05.647Z,17.85
2017-09-24T19:00:34.899Z,17.30
2017-09-24T19:03:02.995Z,17.87
2017-09-24T19:05:31.499Z,16.85
2017-09-24T19:08:00.363Z,15.85
2017-09-24T19:10:29.229Z,18.02
2017-09-24T19:12:57.339Z,15.27
2017-09-24T19:15:26.816Z,15.95
2017-09-24T19:17:54.823Z,16.30
2017-09-24T19:20:25.454Z,17.45
2017-09-24T19:22:54.517Z,15.38
2017-09-24T19:25:22.634Z,17.80
2017-09-24T19:27:51.524Z,17.52
2017-09-24T19:30:20.392Z,18.25
2017-09-24T19:32:48.951Z,17.12
2017-09-24T19:35:18.537Z,17.55
2017-09-24T19:37:48.012Z,17.08
2017-09-24T19:40:16.810Z,17.48
2017-09-24T19:42:47.246Z,15.48
2017-09-24T19:45:16.464Z,17.48
2017-09-24T19:47:45.342Z,17.25
2017-09-24T19:50:13.432Z,17.17
2017-09-24T19:52:41.537Z,17.75
2017-09-24T19:55:10.980Z,19.10
2017-09-24T19:57:39.043Z,17.48
2017-09-24T20:00:08.501Z,18.33
2017-09-24T20:02:36.495Z,17.20
2017-09-24T20:05:04.609Z,16.37
2017-09-24T20:07:32.715Z,18.35
2017-09-24T20:10:01.583Z,17.10
2017-09-24T20:12:31.046Z,18.70
2017-09-24T20:14:59.819Z,17.98
2017-09-24T20:17:27.938Z,19.17
2017-09-24T20:19:56.417Z,19.73
2017-09-24T20:22:24.521Z,17.73
2017-09-24T20:24:53.019Z,17.60
2017-09-24T20:27:21.504Z,19.77
2017-09-24T20:29:49.615Z,19.27
2017-09-24T20:32:17.738Z,19.70
2017-09-24T20:34:46.609Z,20.73
2017-09-24T20:37:14.688Z,19.37
2017-09-24T20:39:42.799Z,21.48
2017-09-24T20:42:11.678Z,20.25
2017-09-24T20:44:39.767Z,22.73
2017-09-24T20:47:08.614Z,22.00
2017-09-24T20:49:36.730Z,21.60
2017-09-24T20:52:04.815Z,22.10
2017-09-24T20:54:33.303Z,21.52
2017-09-24T20:57:01.797Z,21.90
2017-09-24T20:59:29.887Z,23.10
2017-09-24T21:01:59.134Z,23.95
2017-09-24T21:04:27.224Z,22.45
2017-09-24T21:06:56.447Z,24.95
2017-09-24T21:09:24.657Z,25.10
2017-09-24T21:11:52.738Z,23.73
2017-09-24T21:14:21.418Z,23.00
2017-09-24T21:16:49.594Z,24.63
2017-09-24T21:19:18.685Z,25.20
2017-09-24T21:21:46.867Z,23.50
2017-09-24T21:24:15.040Z,25.73
2017-09-24T21:26:43.135Z,23.85
2017-09-24T21:29:11.685Z,24.67
2017-09-24T21:31:40.542Z,24.95
2017-09-24T21:34:08.759Z,24.40
2017-09-24T21:36:37.338Z,24.48
2017-09-24T21:39:05.521Z,23.52
2017-09-24T21:41:33.619Z,24.52
2017-09-24T21:44:02.584Z,25.10
2017-09-24T21:46:32.907Z,25.15
2017-09-24T21:49:01.783Z,26.73
2017-09-24T21:51:29.977Z,23.05
2017-09-24T21:53:58.061Z,23.83
2017-09-24T21:56:26.546Z,22.48
2017-09-24T21:58:56.045Z,22.25
2017-09-24T22:01:24.808Z,24.83
2017-09-24T22:03:53.309Z,22.50
2017-09-24T22:06:21.411Z,22.42
2017-09-24T22:08:50.886Z,22.02
2017-09-24T22:11:18.897Z,22.02
2017-09-24T22:13:47.014Z,22.73
2017-09-24T22:16:15.199Z,22.50
2017-09-24T22:18:43.302Z,23.00
2017-09-24T22:21:12.753Z,20.10
2017-09-24T22:23:41.550Z,21.35
2017-09-24T22:26:09.736Z,19.35
2017-09-24T22:28:38.626Z,18.35
2017-09-24T22:31:06.738Z,21.12
2017-09-24T22:33:35.698Z,19.92
2017-09-24T22:36:03.771Z,21.35
2017-09-24T22:38:31.874Z,21.55
2017-09-24T22:41:01.483Z,20.65
2017-09-24T22:43:30.937Z,18.20
2017-09-24T22:46:00.437Z,18.27
2017-09-24T22:48:29.321Z,17.90
2017-09-24T22:50:57.421Z,23.52
2017-09-24T22:53:26.702Z,16.00
2017-09-24T22:55:54.765Z,16.80
2017-09-24T22:58:24.007Z,16.17
2017-09-24T23:00:52.084Z,17.62
2017-09-24T23:03:21.689Z,17.10
2017-09-24T23:05:49.790Z,14.93
2017-09-24T23:08:18.294Z,15.52
2017-09-24T23:10:46.411Z,16.27
2017-09-24T23:13:14.504Z,15.98
2017-09-24T23:15:43.351Z,15.23
2017-09-24T23:18:12.217Z,15.07
2017-09-24T23:20:40.297Z,14.40
2017-09-24T23:23:08.423Z,13.68
2017-09-24T23:25:37.275Z,14.02
2017-09-24T23:28:05.359Z,13.23
2017-09-24T23:30:35.019Z,12.02
2017-09-24T23:33:03.870Z,12.68
2017-09-24T23:35:31.956Z,11.93
2017-09-24T23:38:01.573Z,12.75
2017-09-24T23:40:30.418Z,11.88
2017-09-24T23:42:58.523Z,11.40
2017-09-24T23:45:26.602Z,13.38
2017-09-24T23:47:55.465Z,12.20
2017-09-24T23:50:23.572Z,11.95
2017-09-24T23:52:52.424Z,13.27
2017-09-24T23:55:20.539Z,11.18
2017-09-24T23:57:50.126Z,12.05
